EZE weather

Ministro Pistarini International Airport
Buenos Aires, Buenos Aires Province, Argentina

Public forecast

Using degrees Celsius for public forecast. Weather courtesy of forecast.io.

Current aviation weather report (METAR) for Ministro Pistarini International Airport

Retrieved 2020/03/31 13:00 UTC (42 minutes ago):

SAEZ 311300Z 12010KT 9999 BKN030 OVC070 20/17 Q1020 NOSIG

Aviation forecast (TAF) for Ministro Pistarini International Airport

Retrieved 2020/03/31 12:00 UTC (2 hours ago):

TAF SAEZ 311100Z 3112/0112 12010KT 9999 OVC040 TX24/3118Z TN18/0109Z BECMG 3113/3116 09020G30KT BECMG 0103/0106 02015G25KT 9999 SCT010 BKN020